Sevilla, Spain

6:31 PM CET on February 14, 2016 (GMT +0100)
San Pablo | | Change Station
CLOSE
Current Station
Airport
Location: Sevilla,
Elevation: 102 ft
Nearby Weather Stations

Elev 102 ft 37.42 °N, 5.89 °W | Updated 31 minutes ago

Scattered Clouds
Scattered Clouds
48 °F
Feels Like 48 °F
N
21
Wind Variable Wind from NNW
Gusts 32 mph

Today
High -- | Low -- °F
--% Chance of Precip.
Yesterday
High -- | Low -- °F
Precip. -- in
Pressure 29.92 in
Visibility 6.2 miles
Clouds Few 3000 ft
Scattered Clouds 4500 ft
Dew Point 39 °F
Humidity 71%
Rainfall 0.00 in
Snow Depth Not available.
8:14 AM 7:01 PM
Waxing Crescent, 43% visible
METAR LEZL 141700Z 34018G28KT 9999 FEW030 SCT045 09/04 Q1013 NOSIG
Pressure 29.92 in
Visibility 6.2 miles
Clouds Few 3000 ft
Scattered Clouds 4500 ft
Dew Point 39 °F
Humidity 71%
Rainfall 0.00 in
Snow Depth Not available.
8:14 AM 7:01 PM
Waxing Crescent, 43% visible
METAR LEZL 141700Z 34018G28KT 9999 FEW030 SCT045 09/04 Q1013 NOSIG

10-Day Weather Forecast

Almanac

Astronomy

Feb. 14, 2016 Rise Set
Actual Time
Civil Twilight
Nautical Twilight
Astronomical Twilight
Moon
Length of Visible Light
Length of Day
Tomorrow will be .
, % of the Moon is Illuminated

Today's Extremes

Country Highs Country Lows

Community

WunderPhotos

Upload Photos

1,892,859 photos uploaded!

WunderBlog® & News

Nearby

Air Quality

  Air Quality AQ Index Pollutant
Not available.

Snow Depth

Station Depth Elevation

Earthquake Activity

City Distance Mag. Time & Date
Minimum magnitude displayed is 2.5.

Coastal Water Temperatures

Place Temperature

Stations

Nearby Weather Stations

Station Location Temp. Windchill Dew Point Humidity Wind Precip. Elev Updated Type